sensor_id;sensor_type;location;lat;lon;timestamp;P1;durP1;ratioP1;P2;durP2;ratioP2
32146;SDS011;32190;49.112;8.598;2023-04-24T00:01:09;0.75;;;0.40;;
32146;SDS011;32190;49.112;8.598;2023-04-24T00:07:00;0.30;;;0.30;;
32146;SDS011;32190;49.112;8.598;2023-04-24T00:12:50;0.20;;;0.20;;
32146;SDS011;32190;49.112;8.598;2023-04-24T00:18:41;0.20;;;0.20;;
32146;SDS011;32190;49.112;8.598;2023-04-24T00:24:31;0.38;;;0.30;;
32146;SDS011;32190;49.112;8.598;2023-04-24T00:30:22;0.30;;;0.30;;
32146;SDS011;32190;49.112;8.598;2023-04-24T00:36:13;0.30;;;0.30;;
32146;SDS011;32190;49.112;8.598;2023-04-24T00:42:03;0.20;;;0.20;;
32146;SDS011;32190;49.112;8.598;2023-04-24T00:47:56;0.20;;;0.20;;
32146;SDS011;32190;49.112;8.598;2023-04-24T00:53:47;1.40;;;0.30;;
32146;SDS011;32190;49.112;8.598;2023-04-24T00:59:37;0.30;;;0.30;;
32146;SDS011;32190;49.112;8.598;2023-04-24T01:05:30;0.20;;;0.20;;
32146;SDS011;32190;49.112;8.598;2023-04-24T01:11:22;0.30;;;0.30;;
32146;SDS011;32190;49.112;8.598;2023-04-24T01:17:12;0.22;;;0.22;;
32146;SDS011;32190;49.112;8.598;2023-04-24T01:23:03;0.47;;;0.25;;
32146;SDS011;32190;49.112;8.598;2023-04-24T01:28:54;0.20;;;0.20;;
32146;SDS011;32190;49.112;8.598;2023-04-24T01:34:44;0.30;;;0.30;;
32146;SDS011;32190;49.112;8.598;2023-04-24T01:40:36;0.30;;;0.30;;
32146;SDS011;32190;49.112;8.598;2023-04-24T01:46:26;1.02;;;0.95;;
32146;SDS011;32190;49.112;8.598;2023-04-24T01:52:17;0.30;;;0.30;;
32146;SDS011;32190;49.112;8.598;2023-04-24T01:58:08;0.43;;;0.20;;
32146;SDS011;32190;49.112;8.598;2023-04-24T02:03:59;0.40;;;0.30;;
32146;SDS011;32190;49.112;8.598;2023-04-24T02:09:50;0.70;;;0.32;;
32146;SDS011;32190;49.112;8.598;2023-04-24T02:15:40;2.38;;;0.65;;
32146;SDS011;32190;49.112;8.598;2023-04-24T02:21:31;0.20;;;0.20;;
32146;SDS011;32190;49.112;8.598;2023-04-24T02:27:22;1.75;;;0.28;;
32146;SDS011;32190;49.112;8.598;2023-04-24T02:33:13;0.55;;;0.30;;
32146;SDS011;32190;49.112;8.598;2023-04-24T02:39:03;1.27;;;0.40;;
32146;SDS011;32190;49.112;8.598;2023-04-24T02:44:54;1.33;;;0.30;;
32146;SDS011;32190;49.112;8.598;2023-04-24T02:50:44;0.28;;;0.28;;
32146;SDS011;32190;49.112;8.598;2023-04-24T02:56:35;0.40;;;0.40;;
32146;SDS011;32190;49.112;8.598;2023-04-24T03:02:26;1.15;;;0.28;;
32146;SDS011;32190;49.112;8.598;2023-04-24T03:08:16;0.40;;;0.40;;
32146;SDS011;32190;49.112;8.598;2023-04-24T03:14:07;0.28;;;0.28;;
32146;SDS011;32190;49.112;8.598;2023-04-24T03:19:58;0.85;;;0.40;;
32146;SDS011;32190;49.112;8.598;2023-04-24T03:25:48;0.20;;;0.20;;
32146;SDS011;32190;49.112;8.598;2023-04-24T03:31:39;0.30;;;0.30;;
32146;SDS011;32190;49.112;8.598;2023-04-24T03:37:29;0.50;;;0.50;;
32146;SDS011;32190;49.112;8.598;2023-04-24T03:43:20;0.30;;;0.30;;
32146;SDS011;32190;49.112;8.598;2023-04-24T03:49:11;0.40;;;0.40;;
32146;SDS011;32190;49.112;8.598;2023-04-24T03:55:01;0.32;;;0.30;;
32146;SDS011;32190;49.112;8.598;2023-04-24T04:00:52;0.65;;;0.40;;
32146;SDS011;32190;49.112;8.598;2023-04-24T04:06:43;0.40;;;0.40;;
32146;SDS011;32190;49.112;8.598;2023-04-24T04:12:37;0.95;;;0.30;;
32146;SDS011;32190;49.112;8.598;2023-04-24T04:18:27;0.77;;;0.45;;
32146;SDS011;32190;49.112;8.598;2023-04-24T04:24:18;0.30;;;0.30;;
32146;SDS011;32190;49.112;8.598;2023-04-24T04:30:10;0.30;;;0.30;;
32146;SDS011;32190;49.112;8.598;2023-04-24T04:36:01;0.60;;;0.50;;
32146;SDS011;32190;49.112;8.598;2023-04-24T04:41:53;0.40;;;0.40;;
32146;SDS011;32190;49.112;8.598;2023-04-24T04:47:44;0.35;;;0.35;;
32146;SDS011;32190;49.112;8.598;2023-04-24T04:53:35;0.43;;;0.40;;
32146;SDS011;32190;49.112;8.598;2023-04-24T04:59:26;0.50;;;0.50;;
32146;SDS011;32190;49.112;8.598;2023-04-24T05:05:17;0.40;;;0.40;;
32146;SDS011;32190;49.112;8.598;2023-04-24T05:11:08;0.50;;;0.50;;
32146;SDS011;32190;49.112;8.598;2023-04-24T05:16:58;0.47;;;0.45;;
32146;SDS011;32190;49.112;8.598;2023-04-24T05:22:50;1.00;;;0.63;;
32146;SDS011;32190;49.112;8.598;2023-04-24T05:28:40;0.40;;;0.30;;
32146;SDS011;32190;49.112;8.598;2023-04-24T05:34:31;0.40;;;0.40;;
32146;SDS011;32190;49.112;8.598;2023-04-24T05:40:22;0.50;;;0.50;;
32146;SDS011;32190;49.112;8.598;2023-04-24T05:52:22;0.57;;;0.57;;
32146;SDS011;32190;49.112;8.598;2023-04-24T05:58:13;0.73;;;0.57;;
32146;SDS011;32190;49.112;8.598;2023-04-24T06:04:04;0.30;;;0.30;;
32146;SDS011;32190;49.112;8.598;2023-04-24T06:09:55;0.75;;;0.75;;
32146;SDS011;32190;49.112;8.598;2023-04-24T06:15:46;1.55;;;0.50;;
32146;SDS011;32190;49.112;8.598;2023-04-24T06:21:40;0.47;;;0.47;;
32146;SDS011;32190;49.112;8.598;2023-04-24T06:27:30;0.43;;;0.43;;
32146;SDS011;32190;49.112;8.598;2023-04-24T06:33:21;0.52;;;0.50;;
32146;SDS011;32190;49.112;8.598;2023-04-24T06:39:11;0.60;;;0.60;;
32146;SDS011;32190;49.112;8.598;2023-04-24T06:45:02;0.90;;;0.60;;
32146;SDS011;32190;49.112;8.598;2023-04-24T06:50:55;0.50;;;0.50;;
32146;SDS011;32190;49.112;8.598;2023-04-24T06:56:45;0.80;;;0.80;;
32146;SDS011;32190;49.112;8.598;2023-04-24T07:02:37;1.38;;;0.77;;
32146;SDS011;32190;49.112;8.598;2023-04-24T07:08:28;1.73;;;0.60;;
32146;SDS011;32190;49.112;8.598;2023-04-24T07:14:20;1.17;;;0.60;;
32146;SDS011;32190;49.112;8.598;2023-04-24T07:20:11;0.80;;;0.80;;
32146;SDS011;32190;49.112;8.598;2023-04-24T07:26:05;0.50;;;0.50;;
32146;SDS011;32190;49.112;8.598;2023-04-24T07:31:56;0.38;;;0.38;;
32146;SDS011;32190;49.112;8.598;2023-04-24T07:37:47;0.40;;;0.40;;
32146;SDS011;32190;49.112;8.598;2023-04-24T07:43:37;1.88;;;0.52;;
32146;SDS011;32190;49.112;8.598;2023-04-24T07:49:28;0.75;;;0.63;;
32146;SDS011;32190;49.112;8.598;2023-04-24T07:55:19;1.10;;;0.68;;
32146;SDS011;32190;49.112;8.598;2023-04-24T08:01:12;0.77;;;0.77;;
32146;SDS011;32190;49.112;8.598;2023-04-24T08:07:05;0.40;;;0.40;;
32146;SDS011;32190;49.112;8.598;2023-04-24T08:12:56;0.85;;;0.43;;
32146;SDS011;32190;49.112;8.598;2023-04-24T08:18:46;0.93;;;0.52;;
32146;SDS011;32190;49.112;8.598;2023-04-24T08:24:37;0.40;;;0.40;;
32146;SDS011;32190;49.112;8.598;2023-04-24T08:30:28;1.65;;;0.65;;
32146;SDS011;32190;49.112;8.598;2023-04-24T08:36:18;0.40;;;0.40;;
32146;SDS011;32190;49.112;8.598;2023-04-24T08:42:09;0.40;;;0.40;;
32146;SDS011;32190;49.112;8.598;2023-04-24T08:48:02;0.77;;;0.75;;
32146;SDS011;32190;49.112;8.598;2023-04-24T08:53:56;0.47;;;0.47;;
32146;SDS011;32190;49.112;8.598;2023-04-24T08:59:47;0.55;;;0.55;;
32146;SDS011;32190;49.112;8.598;2023-04-24T09:05:38;0.45;;;0.45;;
32146;SDS011;32190;49.112;8.598;2023-04-24T09:11:31;0.40;;;0.40;;
32146;SDS011;32190;49.112;8.598;2023-04-24T09:17:28;0.57;;;0.50;;
32146;SDS011;32190;49.112;8.598;2023-04-24T09:23:20;0.40;;;0.40;;
32146;SDS011;32190;49.112;8.598;2023-04-24T09:29:16;0.60;;;0.60;;
32146;SDS011;32190;49.112;8.598;2023-04-24T09:35:17;0.50;;;0.50;;
32146;SDS011;32190;49.112;8.598;2023-04-24T09:41:08;0.65;;;0.60;;
32146;SDS011;32190;49.112;8.598;2023-04-24T09:47:03;0.57;;;0.55;;
32146;SDS011;32190;49.112;8.598;2023-04-24T09:53:05;0.55;;;0.55;;
32146;SDS011;32190;49.112;8.598;2023-04-24T09:59:08;1.05;;;0.68;;
32146;SDS011;32190;49.112;8.598;2023-04-24T10:05:11;1.00;;;0.90;;
32146;SDS011;32190;49.112;8.598;2023-04-24T10:11:01;0.85;;;0.73;;
32146;SDS011;32190;49.112;8.598;2023-04-24T10:16:53;1.00;;;1.00;;
32146;SDS011;32190;49.112;8.598;2023-04-24T10:22:48;0.95;;;0.82;;
32146;SDS011;32190;49.112;8.598;2023-04-24T10:28:44;0.70;;;0.70;;
32146;SDS011;32190;49.112;8.598;2023-04-24T10:34:35;0.80;;;0.80;;
32146;SDS011;32190;49.112;8.598;2023-04-24T10:40:27;0.65;;;0.65;;
32146;SDS011;32190;49.112;8.598;2023-04-24T10:46:21;0.70;;;0.70;;
32146;SDS011;32190;49.112;8.598;2023-04-24T10:52:15;2.70;;;0.90;;
32146;SDS011;32190;49.112;8.598;2023-04-24T10:58:06;1.23;;;0.75;;
32146;SDS011;32190;49.112;8.598;2023-04-24T11:04:00;0.80;;;0.80;;
32146;SDS011;32190;49.112;8.598;2023-04-24T11:09:58;1.60;;;0.80;;
32146;SDS011;32190;49.112;8.598;2023-04-24T11:22:15;2.90;;;1.20;;
32146;SDS011;32190;49.112;8.598;2023-04-24T11:28:14;0.90;;;0.90;;
32146;SDS011;32190;49.112;8.598;2023-04-24T11:34:13;0.90;;;0.90;;
32146;SDS011;32190;49.112;8.598;2023-04-24T11:40:07;1.40;;;1.30;;
32146;SDS011;32190;49.112;8.598;2023-04-24T11:46:16;0.90;;;0.90;;
32146;SDS011;32190;49.112;8.598;2023-04-24T11:52:16;0.93;;;0.85;;
32146;SDS011;32190;49.112;8.598;2023-04-24T11:58:07;1.42;;;1.10;;
32146;SDS011;32190;49.112;8.598;2023-04-24T12:03:59;1.35;;;1.25;;
32146;SDS011;32190;49.112;8.598;2023-04-24T12:09:57;1.00;;;1.00;;
32146;SDS011;32190;49.112;8.598;2023-04-24T12:15:52;1.00;;;1.00;;
32146;SDS011;32190;49.112;8.598;2023-04-24T12:21:58;1.05;;;1.02;;
32146;SDS011;32190;49.112;8.598;2023-04-24T12:27:54;1.00;;;1.00;;
32146;SDS011;32190;49.112;8.598;2023-04-24T12:33:45;1.00;;;1.00;;
32146;SDS011;32190;49.112;8.598;2023-04-24T12:39:36;1.05;;;0.98;;
32146;SDS011;32190;49.112;8.598;2023-04-24T12:45:27;1.13;;;1.08;;
32146;SDS011;32190;49.112;8.598;2023-04-24T12:51:20;1.10;;;0.90;;
32146;SDS011;32190;49.112;8.598;2023-04-24T12:57:18;1.15;;;1.15;;
32146;SDS011;32190;49.112;8.598;2023-04-24T13:15:38;1.25;;;1.00;;
32146;SDS011;32190;49.112;8.598;2023-04-24T13:21:32;1.15;;;0.98;;
32146;SDS011;32190;49.112;8.598;2023-04-24T13:27:32;1.25;;;1.25;;
32146;SDS011;32190;49.112;8.598;2023-04-24T13:33:31;1.95;;;1.00;;
32146;SDS011;32190;49.112;8.598;2023-04-24T13:39:42;0.80;;;0.80;;
32146;SDS011;32190;49.112;8.598;2023-04-24T13:45:35;0.70;;;0.70;;
32146;SDS011;32190;49.112;8.598;2023-04-24T13:51:30;1.10;;;1.00;;
32146;SDS011;32190;49.112;8.598;2023-04-24T13:57:28;0.70;;;0.70;;
32146;SDS011;32190;49.112;8.598;2023-04-24T14:03:20;0.98;;;0.80;;
32146;SDS011;32190;49.112;8.598;2023-04-24T14:09:11;1.13;;;1.13;;
32146;SDS011;32190;49.112;8.598;2023-04-24T14:15:03;1.08;;;0.95;;
32146;SDS011;32190;49.112;8.598;2023-04-24T14:20:55;1.65;;;1.10;;
32146;SDS011;32190;49.112;8.598;2023-04-24T14:26:45;1.13;;;1.02;;
32146;SDS011;32190;49.112;8.598;2023-04-24T14:32:36;0.93;;;0.93;;
32146;SDS011;32190;49.112;8.598;2023-04-24T14:38:27;0.90;;;0.90;;
32146;SDS011;32190;49.112;8.598;2023-04-24T14:44:19;0.68;;;0.68;;
32146;SDS011;32190;49.112;8.598;2023-04-24T14:50:09;0.82;;;0.82;;
32146;SDS011;32190;49.112;8.598;2023-04-24T14:56:00;2.70;;;0.90;;
32146;SDS011;32190;49.112;8.598;2023-04-24T15:01:51;2.00;;;0.68;;
32146;SDS011;32190;49.112;8.598;2023-04-24T15:07:42;1.17;;;0.90;;
32146;SDS011;32190;49.112;8.598;2023-04-24T15:13:33;0.75;;;0.75;;
32146;SDS011;32190;49.112;8.598;2023-04-24T15:19:23;0.82;;;0.82;;
32146;SDS011;32190;49.112;8.598;2023-04-24T15:25:14;2.17;;;0.90;;
32146;SDS011;32190;49.112;8.598;2023-04-24T15:31:05;0.57;;;0.57;;
32146;SDS011;32190;49.112;8.598;2023-04-24T15:36:55;1.20;;;1.10;;
32146;SDS011;32190;49.112;8.598;2023-04-24T15:42:46;0.50;;;0.50;;
32146;SDS011;32190;49.112;8.598;2023-04-24T15:48:36;1.83;;;0.60;;
32146;SDS011;32190;49.112;8.598;2023-04-24T15:54:28;0.50;;;0.50;;
32146;SDS011;32190;49.112;8.598;2023-04-24T16:00:19;0.93;;;0.82;;
32146;SDS011;32190;49.112;8.598;2023-04-24T16:06:10;1.27;;;0.70;;
32146;SDS011;32190;49.112;8.598;2023-04-24T16:12:01;0.73;;;0.70;;
32146;SDS011;32190;49.112;8.598;2023-04-24T16:17:52;2.47;;;1.10;;
32146;SDS011;32190;49.112;8.598;2023-04-24T16:23:42;0.68;;;0.68;;
32146;SDS011;32190;49.112;8.598;2023-04-24T16:29:33;0.75;;;0.70;;
32146;SDS011;32190;49.112;8.598;2023-04-24T16:35:23;0.60;;;0.60;;
32146;SDS011;32190;49.112;8.598;2023-04-24T16:41:14;0.52;;;0.50;;
32146;SDS011;32190;49.112;8.598;2023-04-24T16:47:05;0.70;;;0.70;;
32146;SDS011;32190;49.112;8.598;2023-04-24T16:52:56;0.60;;;0.60;;
32146;SDS011;32190;49.112;8.598;2023-04-24T16:58:47;0.60;;;0.60;;
32146;SDS011;32190;49.112;8.598;2023-04-24T17:04:37;0.93;;;0.80;;
32146;SDS011;32190;49.112;8.598;2023-04-24T17:10:28;0.80;;;0.80;;
32146;SDS011;32190;49.112;8.598;2023-04-24T17:16:18;0.75;;;0.60;;
32146;SDS011;32190;49.112;8.598;2023-04-24T17:22:09;1.20;;;0.57;;
32146;SDS011;32190;49.112;8.598;2023-04-24T17:28:00;0.80;;;0.70;;
32146;SDS011;32190;49.112;8.598;2023-04-24T17:33:50;0.30;;;0.30;;
32146;SDS011;32190;49.112;8.598;2023-04-24T17:39:41;0.40;;;0.40;;
32146;SDS011;32190;49.112;8.598;2023-04-24T17:45:31;0.40;;;0.40;;
32146;SDS011;32190;49.112;8.598;2023-04-24T17:51:22;1.00;;;0.50;;
32146;SDS011;32190;49.112;8.598;2023-04-24T17:57:13;0.60;;;0.55;;
32146;SDS011;32190;49.112;8.598;2023-04-24T18:03:03;0.63;;;0.63;;
32146;SDS011;32190;49.112;8.598;2023-04-24T18:08:55;0.47;;;0.47;;
32146;SDS011;32190;49.112;8.598;2023-04-24T18:14:46;0.52;;;0.35;;
32146;SDS011;32190;49.112;8.598;2023-04-24T18:20:36;0.30;;;0.30;;
32146;SDS011;32190;49.112;8.598;2023-04-24T18:26:27;0.60;;;0.60;;
32146;SDS011;32190;49.112;8.598;2023-04-24T18:32:18;0.70;;;0.40;;
32146;SDS011;32190;49.112;8.598;2023-04-24T18:38:09;0.90;;;0.40;;
32146;SDS011;32190;49.112;8.598;2023-04-24T18:43:59;0.47;;;0.47;;
32146;SDS011;32190;49.112;8.598;2023-04-24T18:49:50;0.40;;;0.40;;
32146;SDS011;32190;49.112;8.598;2023-04-24T18:55:41;0.90;;;0.50;;
32146;SDS011;32190;49.112;8.598;2023-04-24T19:01:31;0.55;;;0.52;;
32146;SDS011;32190;49.112;8.598;2023-04-24T19:07:23;0.50;;;0.50;;
32146;SDS011;32190;49.112;8.598;2023-04-24T19:13:14;0.63;;;0.60;;
32146;SDS011;32190;49.112;8.598;2023-04-24T19:19:05;0.50;;;0.50;;
32146;SDS011;32190;49.112;8.598;2023-04-24T19:24:55;0.60;;;0.60;;
32146;SDS011;32190;49.112;8.598;2023-04-24T19:30:47;0.60;;;0.60;;
32146;SDS011;32190;49.112;8.598;2023-04-24T19:36:38;0.60;;;0.60;;
32146;SDS011;32190;49.112;8.598;2023-04-24T19:42:28;0.50;;;0.50;;
32146;SDS011;32190;49.112;8.598;2023-04-24T19:48:19;0.60;;;0.60;;
32146;SDS011;32190;49.112;8.598;2023-04-24T19:54:10;0.63;;;0.63;;
32146;SDS011;32190;49.112;8.598;2023-04-24T20:00:00;1.27;;;0.70;;
32146;SDS011;32190;49.112;8.598;2023-04-24T20:05:51;0.60;;;0.60;;
32146;SDS011;32190;49.112;8.598;2023-04-24T20:11:42;0.40;;;0.40;;
32146;SDS011;32190;49.112;8.598;2023-04-24T20:17:33;0.60;;;0.60;;
32146;SDS011;32190;49.112;8.598;2023-04-24T20:23:24;0.50;;;0.50;;
32146;SDS011;32190;49.112;8.598;2023-04-24T20:29:15;0.60;;;0.60;;
32146;SDS011;32190;49.112;8.598;2023-04-24T20:35:06;0.80;;;0.80;;
32146;SDS011;32190;49.112;8.598;2023-04-24T20:40:57;0.52;;;0.52;;
32146;SDS011;32190;49.112;8.598;2023-04-24T20:46:49;0.70;;;0.70;;
32146;SDS011;32190;49.112;8.598;2023-04-24T20:52:39;0.50;;;0.50;;
32146;SDS011;32190;49.112;8.598;2023-04-24T20:58:30;0.63;;;0.60;;
32146;SDS011;32190;49.112;8.598;2023-04-24T21:04:20;0.40;;;0.40;;
32146;SDS011;32190;49.112;8.598;2023-04-24T21:10:11;1.25;;;0.57;;
32146;SDS011;32190;49.112;8.598;2023-04-24T21:16:02;0.45;;;0.45;;
32146;SDS011;32190;49.112;8.598;2023-04-24T21:21:53;0.50;;;0.50;;
32146;SDS011;32190;49.112;8.598;2023-04-24T21:27:44;0.50;;;0.50;;
32146;SDS011;32190;49.112;8.598;2023-04-24T21:33:34;0.50;;;0.50;;
32146;SDS011;32190;49.112;8.598;2023-04-24T21:39:25;0.60;;;0.60;;
32146;SDS011;32190;49.112;8.598;2023-04-24T21:45:16;0.50;;;0.50;;
32146;SDS011;32190;49.112;8.598;2023-04-24T21:51:06;0.50;;;0.50;;
32146;SDS011;32190;49.112;8.598;2023-04-24T21:56:57;0.65;;;0.65;;
32146;SDS011;32190;49.112;8.598;2023-04-24T22:02:48;0.43;;;0.43;;
32146;SDS011;32190;49.112;8.598;2023-04-24T22:08:38;0.50;;;0.50;;
32146;SDS011;32190;49.112;8.598;2023-04-24T22:14:30;0.40;;;0.40;;
32146;SDS011;32190;49.112;8.598;2023-04-24T22:20:21;0.45;;;0.45;;
32146;SDS011;32190;49.112;8.598;2023-04-24T22:26:12;0.57;;;0.55;;
32146;SDS011;32190;49.112;8.598;2023-04-24T22:32:03;0.50;;;0.50;;
32146;SDS011;32190;49.112;8.598;2023-04-24T22:37:54;0.88;;;0.55;;
32146;SDS011;32190;49.112;8.598;2023-04-24T22:43:45;0.55;;;0.55;;
32146;SDS011;32190;49.112;8.598;2023-04-24T22:49:36;0.68;;;0.68;;
32146;SDS011;32190;49.112;8.598;2023-04-24T22:55:26;0.55;;;0.55;;
32146;SDS011;32190;49.112;8.598;2023-04-24T23:01:17;0.55;;;0.55;;
32146;SDS011;32190;49.112;8.598;2023-04-24T23:07:07;0.57;;;0.57;;
32146;SDS011;32190;49.112;8.598;2023-04-24T23:12:58;0.65;;;0.65;;
32146;SDS011;32190;49.112;8.598;2023-04-24T23:18:48;0.85;;;0.85;;
32146;SDS011;32190;49.112;8.598;2023-04-24T23:24:39;0.50;;;0.50;;
32146;SDS011;32190;49.112;8.598;2023-04-24T23:30:30;0.60;;;0.50;;
32146;SDS011;32190;49.112;8.598;2023-04-24T23:36:20;0.60;;;0.60;;
32146;SDS011;32190;49.112;8.598;2023-04-24T23:42:11;0.60;;;0.60;;
32146;SDS011;32190;49.112;8.598;2023-04-24T23:48:01;1.45;;;0.60;;
32146;SDS011;32190;49.112;8.598;2023-04-24T23:53:53;2.00;;;0.80;;
32146;SDS011;32190;49.112;8.598;2023-04-24T23:59:44;0.60;;;0.60;;
